createdAt,value
2023-04-26T06:21:08.856Z,1009.65
2023-04-26T06:31:09.035Z,1009.61
2023-04-26T06:41:08.948Z,1009.69
2023-04-26T06:51:09.008Z,1009.70
2023-04-26T07:01:08.951Z,1009.62
2023-04-26T07:11:09.072Z,1009.69
2023-04-26T07:21:09.050Z,1009.74
2023-04-26T07:31:10.624Z,1009.85
2023-04-26T07:41:09.288Z,1009.81
2023-04-26T07:51:08.923Z,1009.95
2023-04-26T08:01:09.417Z,1009.92
2023-04-26T08:11:09.184Z,1009.88
2023-04-26T08:21:09.353Z,1009.83
2023-04-26T08:31:09.538Z,1009.77
2023-04-26T08:41:09.675Z,1009.77
2023-04-26T08:51:09.408Z,1009.81
2023-04-26T09:01:09.455Z,1009.71
2023-04-26T09:11:09.455Z,1009.73
2023-04-26T09:21:09.394Z,1009.71
2023-04-26T09:31:09.516Z,1009.64
2023-04-26T09:41:09.321Z,1009.67
2023-04-26T09:51:10.352Z,1009.67
2023-04-26T10:01:09.519Z,1009.74
2023-04-26T10:11:09.443Z,1009.75
2023-04-26T10:21:09.249Z,1009.89
2023-04-26T10:31:10.484Z,1009.73
2023-04-26T10:41:09.357Z,1009.88
2023-04-26T10:51:09.309Z,1009.71
2023-04-26T11:01:09.598Z,1009.68
2023-04-26T11:11:09.536Z,1009.63
2023-04-26T11:21:09.196Z,1009.52
2023-04-26T11:31:09.519Z,1009.51
2023-04-26T11:41:09.262Z,1009.70
2023-04-26T11:51:09.474Z,1009.61
2023-04-26T12:01:09.361Z,1009.59
2023-04-26T12:11:09.296Z,1009.75
2023-04-26T12:21:09.271Z,1009.64
2023-04-26T12:31:09.719Z,1009.43
2023-04-26T12:41:09.319Z,1009.76
2023-04-26T12:51:09.505Z,1009.87
2023-04-26T13:01:09.594Z,1009.94
2023-04-26T13:11:09.320Z,1009.85
2023-04-26T13:21:09.392Z,1009.78
2023-04-26T13:31:09.492Z,1009.84
2023-04-26T13:41:09.337Z,1009.92
2023-04-26T13:51:09.571Z,1009.97
2023-04-26T14:01:09.389Z,1009.98
2023-04-26T14:11:09.315Z,1010.03
2023-04-26T14:21:09.449Z,1009.95
2023-04-26T14:31:09.317Z,1009.83
2023-04-26T14:41:09.339Z,1009.82
2023-04-26T14:51:09.469Z,1009.87
2023-04-26T15:01:09.514Z,1009.99
2023-04-26T15:11:09.556Z,1010.17
2023-04-26T15:21:09.457Z,1010.23
2023-04-26T15:31:09.398Z,1010.00
2023-04-26T15:41:09.359Z,1010.02
2023-04-26T15:51:09.346Z,1010.03
2023-04-26T16:01:09.743Z,1010.15
2023-04-26T16:11:09.337Z,1010.11
2023-04-26T16:21:09.854Z,1010.10
2023-04-26T16:31:09.519Z,1009.95
2023-04-26T16:41:09.565Z,1010.07
2023-04-26T16:51:09.617Z,1010.17
2023-04-26T17:01:09.664Z,1010.36
2023-04-26T17:11:09.545Z,1010.40
2023-04-26T17:21:09.466Z,1010.61
2023-04-26T17:31:09.693Z,1010.57
2023-04-26T17:41:09.731Z,1010.46
2023-04-26T17:51:09.730Z,1010.49
2023-04-26T18:01:09.626Z,1010.57
2023-04-26T18:11:09.754Z,1010.66
2023-04-26T18:21:09.701Z,1010.84
2023-04-26T18:31:09.605Z,1010.88
2023-04-26T18:41:09.796Z,1011.02
2023-04-26T18:51:09.718Z,1010.94
2023-04-26T19:01:09.999Z,1011.07
2023-04-26T19:11:10.039Z,1011.01
2023-04-26T19:21:10.140Z,1011.23
